sensor_id;sensor_type;location;lat;lon;timestamp;P1;durP1;ratioP1;P2;durP2;ratioP2
23642;SDS011;11998;55.788;37.572;2022-12-16T00:00:28;31.20;;;19.93;;
23642;SDS011;11998;55.788;37.572;2022-12-16T00:01:29;32.00;;;18.90;;
23642;SDS011;11998;55.788;37.572;2022-12-16T00:02:30;53.80;;;18.03;;
23642;SDS011;11998;55.788;37.572;2022-12-16T00:03:31;27.42;;;17.17;;
23642;SDS011;11998;55.788;37.572;2022-12-16T00:04:31;30.37;;;17.27;;
23642;SDS011;11998;55.788;37.572;2022-12-16T00:05:32;31.93;;;18.03;;
23642;SDS011;11998;55.788;37.572;2022-12-16T00:06:33;33.60;;;19.43;;
23642;SDS011;11998;55.788;37.572;2022-12-16T00:07:33;29.83;;;18.73;;
23642;SDS011;11998;55.788;37.572;2022-12-16T00:08:35;28.50;;;17.47;;
23642;SDS011;11998;55.788;37.572;2022-12-16T00:09:36;30.60;;;18.23;;
23642;SDS011;11998;55.788;37.572;2022-12-16T00:10:37;28.93;;;17.47;;
23642;SDS011;11998;55.788;37.572;2022-12-16T00:11:52;34.25;;;18.23;;
23642;SDS011;11998;55.788;37.572;2022-12-16T00:12:52;29.80;;;18.10;;
23642;SDS011;11998;55.788;37.572;2022-12-16T00:13:53;31.80;;;18.57;;
23642;SDS011;11998;55.788;37.572;2022-12-16T00:14:53;30.93;;;18.67;;
23642;SDS011;11998;55.788;37.572;2022-12-16T00:15:54;32.53;;;19.00;;
23642;SDS011;11998;55.788;37.572;2022-12-16T00:16:55;31.43;;;17.47;;
23642;SDS011;11998;55.788;37.572;2022-12-16T00:17:55;31.47;;;19.20;;
23642;SDS011;11998;55.788;37.572;2022-12-16T00:18:56;31.63;;;18.30;;
23642;SDS011;11998;55.788;37.572;2022-12-16T00:19:56;30.73;;;18.43;;
23642;SDS011;11998;55.788;37.572;2022-12-16T00:20:57;30.90;;;17.43;;
23642;SDS011;11998;55.788;37.572;2022-12-16T00:21:57;29.07;;;16.63;;
23642;SDS011;11998;55.788;37.572;2022-12-16T00:22:58;31.13;;;17.83;;
23642;SDS011;11998;55.788;37.572;2022-12-16T00:23:58;26.27;;;15.97;;
23642;SDS011;11998;55.788;37.572;2022-12-16T00:24:59;28.30;;;17.30;;
23642;SDS011;11998;55.788;37.572;2022-12-16T00:25:59;30.73;;;19.17;;
23642;SDS011;11998;55.788;37.572;2022-12-16T00:27:00;28.80;;;16.93;;
23642;SDS011;11998;55.788;37.572;2022-12-16T00:28:01;30.17;;;18.53;;
23642;SDS011;11998;55.788;37.572;2022-12-16T00:29:01;80.03;;;21.60;;
23642;SDS011;11998;55.788;37.572;2022-12-16T00:30:04;32.47;;;18.48;;
23642;SDS011;11998;55.788;37.572;2022-12-16T00:31:05;35.57;;;19.77;;
23642;SDS011;11998;55.788;37.572;2022-12-16T00:32:06;32.42;;;20.73;;
23642;SDS011;11998;55.788;37.572;2022-12-16T00:33:07;32.47;;;18.53;;
23642;SDS011;11998;55.788;37.572;2022-12-16T00:34:08;29.83;;;18.35;;
23642;SDS011;11998;55.788;37.572;2022-12-16T00:35:08;26.93;;;17.57;;
23642;SDS011;11998;55.788;37.572;2022-12-16T00:36:09;31.90;;;18.00;;
23642;SDS011;11998;55.788;37.572;2022-12-16T00:37:10;29.33;;;17.97;;
23642;SDS011;11998;55.788;37.572;2022-12-16T00:38:12;32.40;;;18.27;;
23642;SDS011;11998;55.788;37.572;2022-12-16T00:39:13;33.75;;;20.90;;
23642;SDS011;11998;55.788;37.572;2022-12-16T00:40:14;33.10;;;21.37;;
23642;SDS011;11998;55.788;37.572;2022-12-16T00:41:14;33.10;;;19.37;;
23642;SDS011;11998;55.788;37.572;2022-12-16T00:42:15;34.03;;;19.77;;
23642;SDS011;11998;55.788;37.572;2022-12-16T00:43:15;35.10;;;20.30;;
23642;SDS011;11998;55.788;37.572;2022-12-16T00:44:16;33.90;;;20.73;;
23642;SDS011;11998;55.788;37.572;2022-12-16T00:45:16;34.43;;;19.33;;
23642;SDS011;11998;55.788;37.572;2022-12-16T00:46:17;34.30;;;20.63;;
23642;SDS011;11998;55.788;37.572;2022-12-16T00:47:18;30.93;;;18.37;;
23642;SDS011;11998;55.788;37.572;2022-12-16T00:48:18;31.83;;;18.60;;
23642;SDS011;11998;55.788;37.572;2022-12-16T00:49:22;34.42;;;19.98;;
23642;SDS011;11998;55.788;37.572;2022-12-16T00:50:22;34.53;;;19.63;;
23642;SDS011;11998;55.788;37.572;2022-12-16T00:51:23;29.27;;;18.53;;
23642;SDS011;11998;55.788;37.572;2022-12-16T00:52:23;31.80;;;19.77;;
23642;SDS011;11998;55.788;37.572;2022-12-16T00:53:24;31.83;;;17.57;;
23642;SDS011;11998;55.788;37.572;2022-12-16T00:54:24;28.87;;;17.17;;
23642;SDS011;11998;55.788;37.572;2022-12-16T00:55:25;28.23;;;17.30;;
23642;SDS011;11998;55.788;37.572;2022-12-16T00:56:26;30.20;;;19.05;;
23642;SDS011;11998;55.788;37.572;2022-12-16T00:57:26;29.90;;;17.50;;
23642;SDS011;11998;55.788;37.572;2022-12-16T00:58:27;25.23;;;16.03;;
23642;SDS011;11998;55.788;37.572;2022-12-16T00:59:27;26.67;;;16.07;;
23642;SDS011;11998;55.788;37.572;2022-12-16T01:00:28;28.03;;;17.57;;
23642;SDS011;11998;55.788;37.572;2022-12-16T01:01:29;27.03;;;16.90;;
23642;SDS011;11998;55.788;37.572;2022-12-16T01:02:29;28.13;;;17.20;;
23642;SDS011;11998;55.788;37.572;2022-12-16T01:03:30;25.80;;;15.75;;
23642;SDS011;11998;55.788;37.572;2022-12-16T01:04:31;27.93;;;17.33;;
23642;SDS011;11998;55.788;37.572;2022-12-16T01:05:32;28.47;;;17.20;;
23642;SDS011;11998;55.788;37.572;2022-12-16T01:06:32;27.67;;;16.77;;
23642;SDS011;11998;55.788;37.572;2022-12-16T01:07:33;28.60;;;17.33;;
23642;SDS011;11998;55.788;37.572;2022-12-16T01:08:34;27.60;;;17.05;;
23642;SDS011;11998;55.788;37.572;2022-12-16T01:09:34;26.67;;;16.43;;
23642;SDS011;11998;55.788;37.572;2022-12-16T01:10:35;26.77;;;16.25;;
23642;SDS011;11998;55.788;37.572;2022-12-16T01:11:36;26.80;;;16.17;;
23642;SDS011;11998;55.788;37.572;2022-12-16T01:12:36;26.83;;;16.30;;
23642;SDS011;11998;55.788;37.572;2022-12-16T01:13:37;25.77;;;16.25;;
23642;SDS011;11998;55.788;37.572;2022-12-16T01:14:38;26.70;;;16.03;;
23642;SDS011;11998;55.788;37.572;2022-12-16T01:15:38;26.43;;;16.40;;
23642;SDS011;11998;55.788;37.572;2022-12-16T01:16:39;26.70;;;16.30;;
23642;SDS011;11998;55.788;37.572;2022-12-16T01:17:40;24.40;;;16.37;;
23642;SDS011;11998;55.788;37.572;2022-12-16T01:18:41;27.65;;;16.17;;
23642;SDS011;11998;55.788;37.572;2022-12-16T01:19:41;27.73;;;16.70;;
23642;SDS011;11998;55.788;37.572;2022-12-16T01:20:42;25.10;;;15.50;;
23642;SDS011;11998;55.788;37.572;2022-12-16T01:21:42;25.93;;;15.93;;
23642;SDS011;11998;55.788;37.572;2022-12-16T01:22:43;24.60;;;15.10;;
23642;SDS011;11998;55.788;37.572;2022-12-16T01:23:43;22.97;;;15.67;;
23642;SDS011;11998;55.788;37.572;2022-12-16T01:24:46;26.27;;;16.02;;
23642;SDS011;11998;55.788;37.572;2022-12-16T01:25:49;21.50;;;14.47;;
23642;SDS011;11998;55.788;37.572;2022-12-16T01:26:52;25.10;;;15.30;;
23642;SDS011;11998;55.788;37.572;2022-12-16T01:27:52;25.47;;;16.03;;
23642;SDS011;11998;55.788;37.572;2022-12-16T01:28:53;23.77;;;14.83;;
23642;SDS011;11998;55.788;37.572;2022-12-16T01:29:53;24.53;;;15.93;;
23642;SDS011;11998;55.788;37.572;2022-12-16T01:30:55;24.03;;;15.10;;
23642;SDS011;11998;55.788;37.572;2022-12-16T01:31:57;27.75;;;16.58;;
23642;SDS011;11998;55.788;37.572;2022-12-16T01:32:57;26.30;;;16.17;;
23642;SDS011;11998;55.788;37.572;2022-12-16T01:33:58;23.77;;;15.67;;
23642;SDS011;11998;55.788;37.572;2022-12-16T01:34:58;23.30;;;14.83;;
23642;SDS011;11998;55.788;37.572;2022-12-16T01:36:03;21.80;;;13.60;;
23642;SDS011;11998;55.788;37.572;2022-12-16T01:37:05;21.35;;;13.95;;
23642;SDS011;11998;55.788;37.572;2022-12-16T01:38:07;25.50;;;15.40;;
23642;SDS011;11998;55.788;37.572;2022-12-16T01:39:08;19.67;;;13.33;;
23642;SDS011;11998;55.788;37.572;2022-12-16T01:40:20;21.27;;;13.68;;
23642;SDS011;11998;55.788;37.572;2022-12-16T01:41:23;22.30;;;14.45;;
23642;SDS011;11998;55.788;37.572;2022-12-16T01:42:23;23.33;;;14.47;;
23642;SDS011;11998;55.788;37.572;2022-12-16T01:43:29;21.45;;;14.80;;
23642;SDS011;11998;55.788;37.572;2022-12-16T01:44:32;21.42;;;14.00;;
23642;SDS011;11998;55.788;37.572;2022-12-16T01:45:33;23.13;;;14.65;;
23642;SDS011;11998;55.788;37.572;2022-12-16T01:46:35;25.02;;;15.18;;
23642;SDS011;11998;55.788;37.572;2022-12-16T01:47:37;25.75;;;14.70;;
23642;SDS011;11998;55.788;37.572;2022-12-16T01:49:20;20.30;;;13.57;;
23642;SDS011;11998;55.788;37.572;2022-12-16T01:50:03;24.95;;;14.23;;
23642;SDS011;11998;55.788;37.572;2022-12-16T01:51:12;21.20;;;14.20;;
23642;SDS011;11998;55.788;37.572;2022-12-16T01:52:20;24.73;;;15.02;;
23642;SDS011;11998;55.788;37.572;2022-12-16T01:53:25;23.20;;;15.15;;
23642;SDS011;11998;55.788;37.572;2022-12-16T01:54:45;20.60;;;14.50;;
23642;SDS011;11998;55.788;37.572;2022-12-16T01:55:50;20.23;;;14.27;;
23642;SDS011;11998;55.788;37.572;2022-12-16T01:56:57;23.10;;;13.95;;
23642;SDS011;11998;55.788;37.572;2022-12-16T01:58:10;22.42;;;14.73;;
23642;SDS011;11998;55.788;37.572;2022-12-16T01:59:14;21.17;;;15.23;;
23642;SDS011;11998;55.788;37.572;2022-12-16T02:00:17;22.98;;;14.13;;
23642;SDS011;11998;55.788;37.572;2022-12-16T02:01:19;18.95;;;13.20;;
23642;SDS011;11998;55.788;37.572;2022-12-16T02:02:20;23.30;;;14.70;;
23642;SDS011;11998;55.788;37.572;2022-12-16T02:03:21;21.27;;;14.02;;
23642;SDS011;11998;55.788;37.572;2022-12-16T02:04:22;21.80;;;14.23;;
23642;SDS011;11998;55.788;37.572;2022-12-16T02:05:23;19.43;;;12.73;;
23642;SDS011;11998;55.788;37.572;2022-12-16T02:06:24;21.63;;;12.93;;
23642;SDS011;11998;55.788;37.572;2022-12-16T02:07:24;19.63;;;13.03;;
23642;SDS011;11998;55.788;37.572;2022-12-16T02:08:25;19.57;;;13.53;;
23642;SDS011;11998;55.788;37.572;2022-12-16T02:09:25;19.57;;;12.93;;
23642;SDS011;11998;55.788;37.572;2022-12-16T02:13:04;18.55;;;12.45;;
23642;SDS011;11998;55.788;37.572;2022-12-16T02:17:12;21.30;;;12.60;;
23642;SDS011;11998;55.788;37.572;2022-12-16T02:18:27;19.38;;;12.98;;
23642;SDS011;11998;55.788;37.572;2022-12-16T02:22:33;18.48;;;12.70;;
23642;SDS011;11998;55.788;37.572;2022-12-16T02:28:43;19.98;;;12.40;;
23642;SDS011;11998;55.788;37.572;2022-12-16T02:32:55;18.40;;;13.18;;
23642;SDS011;11998;55.788;37.572;2022-12-16T02:34:07;20.17;;;13.43;;
23642;SDS011;11998;55.788;37.572;2022-12-16T02:36:34;19.35;;;12.80;;
23642;SDS011;11998;55.788;37.572;2022-12-16T02:38:59;19.30;;;13.27;;
23642;SDS011;11998;55.788;37.572;2022-12-16T02:40:10;17.70;;;12.35;;
23642;SDS011;11998;55.788;37.572;2022-12-16T02:42:44;16.98;;;11.45;;
23642;SDS011;11998;55.788;37.572;2022-12-16T02:44:03;19.33;;;13.10;;
23642;SDS011;11998;55.788;37.572;2022-12-16T02:46:11;19.17;;;12.13;;
23642;SDS011;11998;55.788;37.572;2022-12-16T02:47:11;20.27;;;13.77;;
23642;SDS011;11998;55.788;37.572;2022-12-16T02:48:12;17.73;;;13.03;;
23642;SDS011;11998;55.788;37.572;2022-12-16T02:50:17;19.33;;;13.33;;
23642;SDS011;11998;55.788;37.572;2022-12-16T02:51:22;19.13;;;13.50;;
23642;SDS011;11998;55.788;37.572;2022-12-16T02:52:27;17.90;;;11.90;;
23642;SDS011;11998;55.788;37.572;2022-12-16T02:53:30;20.42;;;13.50;;
23642;SDS011;11998;55.788;37.572;2022-12-16T02:54:33;21.42;;;13.02;;
23642;SDS011;11998;55.788;37.572;2022-12-16T02:55:44;18.17;;;13.37;;
23642;SDS011;11998;55.788;37.572;2022-12-16T03:00:48;21.60;;;12.50;;
23642;SDS011;11998;55.788;37.572;2022-12-16T03:02:09;21.35;;;12.82;;
23642;SDS011;11998;55.788;37.572;2022-12-16T03:03:35;19.45;;;12.40;;
23642;SDS011;11998;55.788;37.572;2022-12-16T03:04:49;19.50;;;13.00;;
23642;SDS011;11998;55.788;37.572;2022-12-16T03:05:53;20.55;;;13.65;;
23642;SDS011;11998;55.788;37.572;2022-12-16T03:06:56;17.98;;;13.02;;
23642;SDS011;11998;55.788;37.572;2022-12-16T03:08:00;19.55;;;14.65;;
23642;SDS011;11998;55.788;37.572;2022-12-16T03:09:06;21.75;;;14.70;;
23642;SDS011;11998;55.788;37.572;2022-12-16T03:10:11;20.35;;;13.52;;
23642;SDS011;11998;55.788;37.572;2022-12-16T03:11:15;21.08;;;13.38;;
23642;SDS011;11998;55.788;37.572;2022-12-16T03:12:17;21.60;;;13.53;;
23642;SDS011;11998;55.788;37.572;2022-12-16T03:13:21;18.85;;;13.27;;
23642;SDS011;11998;55.788;37.572;2022-12-16T03:14:23;19.88;;;13.35;;
23642;SDS011;11998;55.788;37.572;2022-12-16T03:15:28;21.02;;;14.55;;
23642;SDS011;11998;55.788;37.572;2022-12-16T03:16:32;19.00;;;12.63;;
23642;SDS011;11998;55.788;37.572;2022-12-16T03:17:34;18.50;;;13.03;;
23642;SDS011;11998;55.788;37.572;2022-12-16T03:18:37;20.17;;;13.55;;
23642;SDS011;11998;55.788;37.572;2022-12-16T03:19:42;20.08;;;13.88;;
23642;SDS011;11998;55.788;37.572;2022-12-16T03:21:02;19.27;;;13.15;;
23642;SDS011;11998;55.788;37.572;2022-12-16T03:24:19;18.75;;;12.32;;
23642;SDS011;11998;55.788;37.572;2022-12-16T03:25:20;19.60;;;13.37;;
23642;SDS011;11998;55.788;37.572;2022-12-16T03:26:26;16.75;;;11.68;;
23642;SDS011;11998;55.788;37.572;2022-12-16T03:27:33;19.23;;;13.70;;
23642;SDS011;11998;55.788;37.572;2022-12-16T03:28:52;19.25;;;12.77;;
23642;SDS011;11998;55.788;37.572;2022-12-16T03:30:03;20.95;;;13.30;;
23642;SDS011;11998;55.788;37.572;2022-12-16T03:32:35;19.80;;;12.68;;
23642;SDS011;11998;55.788;37.572;2022-12-16T03:33:37;18.55;;;13.10;;
23642;SDS011;11998;55.788;37.572;2022-12-16T03:35:52;20.00;;;12.23;;
23642;SDS011;11998;55.788;37.572;2022-12-16T03:36:59;19.83;;;13.02;;
23642;SDS011;11998;55.788;37.572;2022-12-16T03:38:03;20.48;;;13.93;;
23642;SDS011;11998;55.788;37.572;2022-12-16T03:39:07;21.77;;;14.10;;
23642;SDS011;11998;55.788;37.572;2022-12-16T03:40:09;18.17;;;12.32;;
23642;SDS011;11998;55.788;37.572;2022-12-16T03:41:13;19.60;;;12.63;;
23642;SDS011;11998;55.788;37.572;2022-12-16T03:42:16;19.40;;;12.88;;
23642;SDS011;11998;55.788;37.572;2022-12-16T03:43:17;25.10;;;14.03;;
23642;SDS011;11998;55.788;37.572;2022-12-16T03:44:18;19.88;;;13.73;;
23642;SDS011;11998;55.788;37.572;2022-12-16T03:45:23;21.08;;;13.90;;
23642;SDS011;11998;55.788;37.572;2022-12-16T03:46:28;20.33;;;13.57;;
23642;SDS011;11998;55.788;37.572;2022-12-16T03:47:28;21.80;;;14.37;;
23642;SDS011;11998;55.788;37.572;2022-12-16T03:48:29;21.10;;;14.63;;
23642;SDS011;11998;55.788;37.572;2022-12-16T03:49:30;19.63;;;13.90;;
23642;SDS011;11998;55.788;37.572;2022-12-16T03:50:31;21.07;;;13.97;;
23642;SDS011;11998;55.788;37.572;2022-12-16T03:51:33;18.13;;;12.88;;
23642;SDS011;11998;55.788;37.572;2022-12-16T03:52:34;20.83;;;13.53;;
23642;SDS011;11998;55.788;37.572;2022-12-16T03:53:34;18.97;;;13.90;;
23642;SDS011;11998;55.788;37.572;2022-12-16T03:54:34;18.80;;;12.50;;
23642;SDS011;11998;55.788;37.572;2022-12-16T03:55:35;19.40;;;12.80;;
23642;SDS011;11998;55.788;37.572;2022-12-16T03:56:35;19.83;;;14.27;;
23642;SDS011;11998;55.788;37.572;2022-12-16T03:57:36;19.37;;;13.10;;
23642;SDS011;11998;55.788;37.572;2022-12-16T03:58:37;20.70;;;13.93;;
23642;SDS011;11998;55.788;37.572;2022-12-16T03:59:41;18.73;;;13.32;;
23642;SDS011;11998;55.788;37.572;2022-12-16T04:00:42;22.00;;;13.90;;
23642;SDS011;11998;55.788;37.572;2022-12-16T04:01:43;22.30;;;15.20;;
23642;SDS011;11998;55.788;37.572;2022-12-16T04:02:43;20.97;;;14.13;;
23642;SDS011;11998;55.788;37.572;2022-12-16T04:03:44;19.57;;;13.63;;
23642;SDS011;11998;55.788;37.572;2022-12-16T04:04:44;18.63;;;12.83;;
23642;SDS011;11998;55.788;37.572;2022-12-16T04:05:45;19.83;;;12.80;;
23642;SDS011;11998;55.788;37.572;2022-12-16T04:06:45;18.30;;;13.00;;
23642;SDS011;11998;55.788;37.572;2022-12-16T04:08:06;17.85;;;12.38;;
23642;SDS011;11998;55.788;37.572;2022-12-16T04:09:06;18.83;;;12.17;;
23642;SDS011;11998;55.788;37.572;2022-12-16T04:10:07;19.07;;;13.03;;
23642;SDS011;11998;55.788;37.572;2022-12-16T04:11:09;19.17;;;12.43;;
23642;SDS011;11998;55.788;37.572;2022-12-16T04:12:28;20.85;;;13.43;;
23642;SDS011;11998;55.788;37.572;2022-12-16T04:13:47;18.23;;;12.35;;
23642;SDS011;11998;55.788;37.572;2022-12-16T04:15:08;18.95;;;12.48;;
23642;SDS011;11998;55.788;37.572;2022-12-16T04:16:28;18.73;;;13.45;;
23642;SDS011;11998;55.788;37.572;2022-12-16T04:17:48;18.92;;;12.80;;
23642;SDS011;11998;55.788;37.572;2022-12-16T04:19:10;16.88;;;12.48;;
23642;SDS011;11998;55.788;37.572;2022-12-16T04:20:48;18.98;;;12.60;;
23642;SDS011;11998;55.788;37.572;2022-12-16T04:22:17;17.80;;;11.75;;
23642;SDS011;11998;55.788;37.572;2022-12-16T04:23:46;17.77;;;12.35;;
23642;SDS011;11998;55.788;37.572;2022-12-16T04:25:09;18.25;;;12.55;;
23642;SDS011;11998;55.788;37.572;2022-12-16T04:26:15;18.75;;;12.55;;
23642;SDS011;11998;55.788;37.572;2022-12-16T04:27:16;17.27;;;11.93;;
23642;SDS011;11998;55.788;37.572;2022-12-16T04:29:27;16.57;;;10.93;;
23642;SDS011;11998;55.788;37.572;2022-12-16T04:30:28;14.93;;;10.87;;
23642;SDS011;11998;55.788;37.572;2022-12-16T04:31:33;14.00;;;10.68;;
23642;SDS011;11998;55.788;37.572;2022-12-16T04:32:34;15.57;;;11.17;;
23642;SDS011;11998;55.788;37.572;2022-12-16T04:33:53;15.32;;;11.07;;
23642;SDS011;11998;55.788;37.572;2022-12-16T04:35:13;16.13;;;11.95;;
23642;SDS011;11998;55.788;37.572;2022-12-16T04:36:32;18.73;;;11.73;;
23642;SDS011;11998;55.788;37.572;2022-12-16T04:37:51;16.52;;;11.60;;
23642;SDS011;11998;55.788;37.572;2022-12-16T04:39:10;16.88;;;11.65;;
23642;SDS011;11998;55.788;37.572;2022-12-16T04:40:30;17.50;;;10.95;;
23642;SDS011;11998;55.788;37.572;2022-12-16T04:41:52;16.55;;;11.35;;
23642;SDS011;11998;55.788;37.572;2022-12-16T04:43:12;17.77;;;12.82;;
23642;SDS011;11998;55.788;37.572;2022-12-16T04:44:31;18.90;;;11.95;;
23642;SDS011;11998;55.788;37.572;2022-12-16T04:45:50;21.58;;;11.00;;
23642;SDS011;11998;55.788;37.572;2022-12-16T04:47:09;15.20;;;10.60;;
23642;SDS011;11998;55.788;37.572;2022-12-16T04:48:29;15.52;;;10.90;;
23642;SDS011;11998;55.788;37.572;2022-12-16T04:49:48;17.27;;;11.70;;
23642;SDS011;11998;55.788;37.572;2022-12-16T04:51:07;16.38;;;11.05;;
23642;SDS011;11998;55.788;37.572;2022-12-16T04:52:26;15.13;;;10.57;;
23642;SDS011;11998;55.788;37.572;2022-12-16T04:53:45;16.40;;;10.77;;
23642;SDS011;11998;55.788;37.572;2022-12-16T04:55:05;15.15;;;10.65;;
23642;SDS011;11998;55.788;37.572;2022-12-16T04:56:25;15.98;;;10.43;;
23642;SDS011;11998;55.788;37.572;2022-12-16T04:57:47;17.05;;;10.68;;
23642;SDS011;11998;55.788;37.572;2022-12-16T04:59:09;14.07;;;11.20;;
23642;SDS011;11998;55.788;37.572;2022-12-16T05:00:28;16.23;;;11.18;;
23642;SDS011;11998;55.788;37.572;2022-12-16T05:01:47;14.45;;;10.73;;
23642;SDS011;11998;55.788;37.572;2022-12-16T05:03:06;14.55;;;10.73;;
23642;SDS011;11998;55.788;37.572;2022-12-16T05:04:26;14.82;;;10.90;;
23642;SDS011;11998;55.788;37.572;2022-12-16T05:05:45;14.60;;;10.77;;
23642;SDS011;11998;55.788;37.572;2022-12-16T05:07:04;14.75;;;10.68;;
23642;SDS011;11998;55.788;37.572;2022-12-16T05:08:23;16.27;;;10.70;;
23642;SDS011;11998;55.788;37.572;2022-12-16T05:09:43;16.50;;;10.10;;
23642;SDS011;11998;55.788;37.572;2022-12-16T05:11:02;15.32;;;10.30;;
23642;SDS011;11998;55.788;37.572;2022-12-16T05:12:22;14.32;;;10.40;;
23642;SDS011;11998;55.788;37.572;2022-12-16T05:13:41;14.82;;;9.90;;
23642;SDS011;11998;55.788;37.572;2022-12-16T05:15:00;14.35;;;10.13;;
23642;SDS011;11998;55.788;37.572;2022-12-16T05:16:19;12.77;;;9.25;;
23642;SDS011;11998;55.788;37.572;2022-12-16T05:17:38;12.45;;;8.98;;
23642;SDS011;11998;55.788;37.572;2022-12-16T05:18:58;14.25;;;9.35;;
23642;SDS011;11998;55.788;37.572;2022-12-16T05:20:17;12.82;;;9.75;;
23642;SDS011;11998;55.788;37.572;2022-12-16T05:21:36;13.40;;;9.63;;
23642;SDS011;11998;55.788;37.572;2022-12-16T05:22:55;14.57;;;9.38;;
23642;SDS011;11998;55.788;37.572;2022-12-16T05:24:14;15.73;;;10.73;;
23642;SDS011;11998;55.788;37.572;2022-12-16T05:25:34;14.43;;;10.35;;
23642;SDS011;11998;55.788;37.572;2022-12-16T05:26:53;12.57;;;9.80;;
23642;SDS011;11998;55.788;37.572;2022-12-16T05:28:12;13.85;;;10.50;;
23642;SDS011;11998;55.788;37.572;2022-12-16T05:29:31;12.65;;;9.35;;
23642;SDS011;11998;55.788;37.572;2022-12-16T05:30:51;13.63;;;9.07;;
23642;SDS011;11998;55.788;37.572;2022-12-16T05:32:10;12.90;;;9.90;;
23642;SDS011;11998;55.788;37.572;2022-12-16T05:33:29;11.70;;;8.95;;
23642;SDS011;11998;55.788;37.572;2022-12-16T05:34:49;12.43;;;9.35;;
23642;SDS011;11998;55.788;37.572;2022-12-16T05:36:08;12.32;;;9.10;;
23642;SDS011;11998;55.788;37.572;2022-12-16T05:37:27;15.43;;;9.23;;
23642;SDS011;11998;55.788;37.572;2022-12-16T05:38:46;13.00;;;9.10;;
23642;SDS011;11998;55.788;37.572;2022-12-16T05:40:06;11.82;;;8.80;;
23642;SDS011;11998;55.788;37.572;2022-12-16T05:41:29;12.18;;;9.25;;
23642;SDS011;11998;55.788;37.572;2022-12-16T05:42:48;13.48;;;9.40;;
23642;SDS011;11998;55.788;37.572;2022-12-16T05:44:08;11.52;;;8.85;;
23642;SDS011;11998;55.788;37.572;2022-12-16T05:45:27;12.93;;;9.93;;
23642;SDS011;11998;55.788;37.572;2022-12-16T05:46:46;12.50;;;9.15;;
23642;SDS011;11998;55.788;37.572;2022-12-16T05:48:06;11.57;;;8.90;;
23642;SDS011;11998;55.788;37.572;2022-12-16T05:49:25;13.20;;;9.20;;
23642;SDS011;11998;55.788;37.572;2022-12-16T05:50:44;13.05;;;8.98;;
23642;SDS011;11998;55.788;37.572;2022-12-16T05:52:03;13.82;;;10.77;;
23642;SDS011;11998;55.788;37.572;2022-12-16T05:53:23;12.52;;;8.65;;
23642;SDS011;11998;55.788;37.572;2022-12-16T05:54:42;13.95;;;9.65;;
23642;SDS011;11998;55.788;37.572;2022-12-16T05:56:01;13.15;;;9.52;;
23642;SDS011;11998;55.788;37.572;2022-12-16T05:57:20;11.77;;;8.82;;
23642;SDS011;11998;55.788;37.572;2022-12-16T05:58:39;12.00;;;8.60;;
23642;SDS011;11998;55.788;37.572;2022-12-16T05:59:58;13.68;;;8.90;;
23642;SDS011;11998;55.788;37.572;2022-12-16T06:01:17;12.55;;;9.40;;
23642;SDS011;11998;55.788;37.572;2022-12-16T06:02:38;11.93;;;8.80;;
23642;SDS011;11998;55.788;37.572;2022-12-16T06:03:57;11.93;;;9.13;;
23642;SDS011;11998;55.788;37.572;2022-12-16T06:05:17;10.52;;;8.88;;
23642;SDS011;11998;55.788;37.572;2022-12-16T06:06:36;13.60;;;9.50;;
23642;SDS011;11998;55.788;37.572;2022-12-16T06:07:55;12.38;;;8.93;;
23642;SDS011;11998;55.788;37.572;2022-12-16T06:09:14;14.10;;;9.90;;
23642;SDS011;11998;55.788;37.572;2022-12-16T06:10:33;12.05;;;8.93;;
23642;SDS011;11998;55.788;37.572;2022-12-16T06:11:52;12.00;;;9.15;;
23642;SDS011;11998;55.788;37.572;2022-12-16T06:13:11;13.23;;;8.80;;
23642;SDS011;11998;55.788;37.572;2022-12-16T06:14:31;12.10;;;8.20;;
23642;SDS011;11998;55.788;37.572;2022-12-16T06:15:50;10.50;;;7.78;;
23642;SDS011;11998;55.788;37.572;2022-12-16T06:17:09;11.77;;;8.60;;
23642;SDS011;11998;55.788;37.572;2022-12-16T06:18:28;14.98;;;8.40;;
23642;SDS011;11998;55.788;37.572;2022-12-16T06:19:48;11.23;;;8.45;;
23642;SDS011;11998;55.788;37.572;2022-12-16T06:21:07;10.98;;;7.97;;
23642;SDS011;11998;55.788;37.572;2022-12-16T06:22:26;12.18;;;8.27;;
23642;SDS011;11998;55.788;37.572;2022-12-16T06:23:46;11.15;;;8.43;;
23642;SDS011;11998;55.788;37.572;2022-12-16T06:25:04;11.95;;;8.60;;
23642;SDS011;11998;55.788;37.572;2022-12-16T06:26:23;8.60;;;7.53;;
23642;SDS011;11998;55.788;37.572;2022-12-16T06:27:47;10.07;;;8.30;;
23642;SDS011;11998;55.788;37.572;2022-12-16T06:29:08;12.73;;;9.27;;
23642;SDS011;11998;55.788;37.572;2022-12-16T06:30:27;12.75;;;8.45;;
23642;SDS011;11998;55.788;37.572;2022-12-16T06:31:46;10.30;;;8.23;;
23642;SDS011;11998;55.788;37.572;2022-12-16T06:33:06;11.40;;;7.90;;
23642;SDS011;11998;55.788;37.572;2022-12-16T06:34:25;12.02;;;8.27;;
23642;SDS011;11998;55.788;37.572;2022-12-16T06:35:45;12.38;;;7.75;;
23642;SDS011;11998;55.788;37.572;2022-12-16T06:37:04;10.02;;;7.80;;
23642;SDS011;11998;55.788;37.572;2022-12-16T06:38:23;13.00;;;8.25;;
23642;SDS011;11998;55.788;37.572;2022-12-16T06:39:43;10.40;;;8.10;;
23642;SDS011;11998;55.788;37.572;2022-12-16T06:41:02;10.57;;;8.10;;
23642;SDS011;11998;55.788;37.572;2022-12-16T06:42:21;10.50;;;7.70;;
23642;SDS011;11998;55.788;37.572;2022-12-16T06:43:40;11.38;;;8.45;;
23642;SDS011;11998;55.788;37.572;2022-12-16T06:44:59;11.73;;;8.77;;
23642;SDS011;11998;55.788;37.572;2022-12-16T06:46:19;10.35;;;7.93;;
23642;SDS011;11998;55.788;37.572;2022-12-16T06:47:38;10.55;;;8.05;;
23642;SDS011;11998;55.788;37.572;2022-12-16T06:48:58;10.23;;;7.47;;
23642;SDS011;11998;55.788;37.572;2022-12-16T06:50:17;9.77;;;7.38;;
23642;SDS011;11998;55.788;37.572;2022-12-16T06:51:36;10.57;;;7.47;;
23642;SDS011;11998;55.788;37.572;2022-12-16T06:52:56;12.40;;;7.68;;
23642;SDS011;11998;55.788;37.572;2022-12-16T06:54:15;12.45;;;7.88;;
23642;SDS011;11998;55.788;37.572;2022-12-16T06:55:34;12.38;;;7.82;;
23642;SDS011;11998;55.788;37.572;2022-12-16T06:56:53;10.50;;;8.35;;
23642;SDS011;11998;55.788;37.572;2022-12-16T06:58:12;9.77;;;7.50;;
23642;SDS011;11998;55.788;37.572;2022-12-16T06:59:32;10.88;;;8.40;;
23642;SDS011;11998;55.788;37.572;2022-12-16T07:00:51;10.88;;;8.15;;
23642;SDS011;11998;55.788;37.572;2022-12-16T07:02:10;9.82;;;8.02;;
23642;SDS011;11998;55.788;37.572;2022-12-16T07:03:30;10.80;;;7.35;;
23642;SDS011;11998;55.788;37.572;2022-12-16T07:04:49;10.63;;;7.90;;
23642;SDS011;11998;55.788;37.572;2022-12-16T07:06:08;10.65;;;7.80;;
23642;SDS011;11998;55.788;37.572;2022-12-16T07:07:27;11.15;;;8.35;;
23642;SDS011;11998;55.788;37.572;2022-12-16T07:08:47;10.48;;;7.45;;
23642;SDS011;11998;55.788;37.572;2022-12-16T07:10:06;13.43;;;7.90;;
23642;SDS011;11998;55.788;37.572;2022-12-16T07:11:25;13.52;;;7.38;;
23642;SDS011;11998;55.788;37.572;2022-12-16T07:12:44;12.07;;;7.95;;
23642;SDS011;11998;55.788;37.572;2022-12-16T07:14:03;12.15;;;8.88;;